sensor_id;sensor_type;location;lat;lon;timestamp;pressure;altitude;pressure_sealevel;temperature;humidity
73934;BME280;62286;50.528;18.284;2022-12-07T00:01:28;98604.13;;;20.67;44.06
73934;BME280;62286;50.528;18.284;2022-12-07T00:03:55;98606.13;;;20.67;43.87
73934;BME280;62286;50.528;18.284;2022-12-07T00:06:20;98610.47;;;20.68;43.93
73934;BME280;62286;50.528;18.284;2022-12-07T00:08:46;98602.09;;;20.68;43.96
73934;BME280;62286;50.528;18.284;2022-12-07T00:11:12;98601.31;;;20.67;43.83
73934;BME280;62286;50.528;18.284;2022-12-07T00:13:38;98604.13;;;20.67;44.03
73934;BME280;62286;50.528;18.284;2022-12-07T00:16:13;98595.75;;;20.67;43.97
73934;BME280;62286;50.528;18.284;2022-12-07T00:18:39;98598.53;;;20.67;44.03
73934;BME280;62286;50.528;18.284;2022-12-07T00:21:09;98606.13;;;20.67;43.98
73934;BME280;62286;50.528;18.284;2022-12-07T00:23:35;98599.31;;;20.68;43.84
73934;BME280;62286;50.528;18.284;2022-12-07T00:26:07;98595.75;;;20.67;44.06
73934;BME280;62286;50.528;18.284;2022-12-07T00:28:32;98592.97;;;20.67;43.82
73934;BME280;62286;50.528;18.284;2022-12-07T00:31:04;98594.97;;;20.67;43.95
73934;BME280;62286;50.528;18.284;2022-12-07T00:33:30;98597.75;;;20.67;44.11
73934;BME280;62286;50.528;18.284;2022-12-07T00:35:56;98592.97;;;20.67;43.91
73934;BME280;62286;50.528;18.284;2022-12-07T00:38:21;98588.19;;;20.68;44.16
73934;BME280;62286;50.528;18.284;2022-12-07T00:40:53;98593.75;;;20.68;44.01
73934;BME280;62286;50.528;18.284;2022-12-07T00:43:18;98582.63;;;20.68;44.02
73934;BME280;62286;50.528;18.284;2022-12-07T00:45:43;98579.84;;;20.68;44.06
73934;BME280;62286;50.528;18.284;2022-12-07T00:48:08;98575.06;;;20.68;43.95
73934;BME280;62286;50.528;18.284;2022-12-07T00:50:34;98575.84;;;20.69;44.10
73934;BME280;62286;50.528;18.284;2022-12-07T00:52:59;98572.25;;;20.68;43.87
73934;BME280;62286;50.528;18.284;2022-12-07T00:55:24;98579.84;;;20.68;44.07
73934;BME280;62286;50.528;18.284;2022-12-07T00:57:49;98576.28;;;20.67;44.07
73934;BME280;62286;50.528;18.284;2022-12-07T01:00:14;98579.84;;;20.68;43.87
73934;BME280;62286;50.528;18.284;2022-12-07T01:02:39;98575.47;;;20.67;43.96
73934;BME280;62286;50.528;18.284;2022-12-07T01:05:05;98576.28;;;20.67;44.00
73934;BME280;62286;50.528;18.284;2022-12-07T01:07:30;98571.09;;;20.66;44.02
73934;BME280;62286;50.528;18.284;2022-12-07T01:09:55;98567.53;;;20.65;43.83
73934;BME280;62286;50.528;18.284;2022-12-07T01:12:20;98571.53;;;20.64;44.06
73934;BME280;62286;50.528;18.284;2022-12-07T01:14:45;98567.97;;;20.64;44.02
73934;BME280;62286;50.528;18.284;2022-12-07T01:17:10;98567.97;;;20.64;44.09
73934;BME280;62286;50.528;18.284;2022-12-07T01:19:35;98577.09;;;20.64;44.03
73934;BME280;62286;50.528;18.284;2022-12-07T01:22:01;98574.31;;;20.64;43.80
73934;BME280;62286;50.528;18.284;2022-12-07T01:24:26;98566.75;;;20.65;44.01
73934;BME280;62286;50.528;18.284;2022-12-07T01:26:51;98577.09;;;20.64;43.88
73934;BME280;62286;50.528;18.284;2022-12-07T01:29:16;98568.75;;;20.64;43.97
73934;BME280;62286;50.528;18.284;2022-12-07T01:31:41;98566.75;;;20.65;44.06
73934;BME280;62286;50.528;18.284;2022-12-07T01:34:06;98571.53;;;20.64;43.95
73934;BME280;62286;50.528;18.284;2022-12-07T01:36:32;98565.97;;;20.64;44.10
73934;BME280;62286;50.528;18.284;2022-12-07T01:38:58;98566.75;;;20.65;43.96
73934;BME280;62286;50.528;18.284;2022-12-07T01:41:25;98556.41;;;20.65;43.94
73934;BME280;62286;50.528;18.284;2022-12-07T01:46:34;98560.78;;;20.66;43.92
73934;BME280;62286;50.528;18.284;2022-12-07T01:48:59;98559.56;;;20.67;43.90
73934;BME280;62286;50.528;18.284;2022-12-07T01:51:25;98558.78;;;20.67;43.92
73934;BME280;62286;50.528;18.284;2022-12-07T01:53:50;98552.00;;;20.68;43.81
73934;BME280;62286;50.528;18.284;2022-12-07T01:56:17;98556.78;;;20.67;43.81
73934;BME280;62286;50.528;18.284;2022-12-07T01:58:43;98563.13;;;20.68;43.75
73934;BME280;62286;50.528;18.284;2022-12-07T02:01:09;98558.34;;;20.68;43.86
73934;BME280;62286;50.528;18.284;2022-12-07T02:03:36;98561.13;;;20.68;43.82
73934;BME280;62286;50.528;18.284;2022-12-07T02:06:02;98565.13;;;20.67;44.00
73934;BME280;62286;50.528;18.284;2022-12-07T02:08:29;98562.34;;;20.67;43.90
73934;BME280;62286;50.528;18.284;2022-12-07T02:10:54;98560.78;;;20.66;43.75
73934;BME280;62286;50.528;18.284;2022-12-07T02:13:20;98558.00;;;20.66;43.92
73934;BME280;62286;50.528;18.284;2022-12-07T02:21:10;98551.25;;;20.64;43.84
73934;BME280;62286;50.528;18.284;2022-12-07T02:35:18;98548.03;;;20.65;44.00
73934;BME280;62286;50.528;18.284;2022-12-07T02:39:59;98549.22;;;20.68;43.89
73934;BME280;62286;50.528;18.284;2022-12-07T02:42:28;98544.41;;;20.68;43.67
73934;BME280;62286;50.528;18.284;2022-12-07T02:44:55;98536.84;;;20.69;43.89
73934;BME280;62286;50.528;18.284;2022-12-07T02:47:20;98536.84;;;20.69;43.76
73934;BME280;62286;50.528;18.284;2022-12-07T02:49:46;98541.19;;;20.70;43.74
73934;BME280;62286;50.528;18.284;2022-12-07T02:52:11;98545.22;;;20.69;43.77
73934;BME280;62286;50.528;18.284;2022-12-07T02:54:36;98537.63;;;20.70;43.85
73934;BME280;62286;50.528;18.284;2022-12-07T03:12:29;98525.38;;;20.67;43.90
73934;BME280;62286;50.528;18.284;2022-12-07T03:14:58;98526.16;;;20.67;43.84
73934;BME280;62286;50.528;18.284;2022-12-07T03:17:25;98531.72;;;20.67;43.82
73934;BME280;62286;50.528;18.284;2022-12-07T03:19:53;98528.16;;;20.67;43.83
73934;BME280;62286;50.528;18.284;2022-12-07T03:22:21;98525.38;;;20.67;43.81
73934;BME280;62286;50.528;18.284;2022-12-07T03:24:48;98534.91;;;20.66;43.75
73934;BME280;62286;50.528;18.284;2022-12-07T03:27:19;98523.00;;;20.65;43.68
73934;BME280;62286;50.528;18.284;2022-12-07T03:29:47;98523.84;;;20.62;43.94
73934;BME280;62286;50.528;18.284;2022-12-07T03:34:50;98523.13;;;20.58;43.87
73934;BME280;62286;50.528;18.284;2022-12-07T03:37:18;98527.56;;;20.56;43.76
73934;BME280;62286;50.528;18.284;2022-12-07T03:39:48;98522.84;;;20.53;43.81
73934;BME280;62286;50.528;18.284;2022-12-07T03:42:16;98529.22;;;20.53;43.76
73934;BME280;62286;50.528;18.284;2022-12-07T03:44:41;98521.22;;;20.55;43.65
73934;BME280;62286;50.528;18.284;2022-12-07T03:49:50;98512.78;;;20.59;43.67
73934;BME280;62286;50.528;18.284;2022-12-07T03:57:22;98507.59;;;20.61;43.55
73934;BME280;62286;50.528;18.284;2022-12-07T03:59:48;98509.59;;;20.60;43.54
73934;BME280;62286;50.528;18.284;2022-12-07T04:02:14;98516.72;;;20.61;43.65
73934;BME280;62286;50.528;18.284;2022-12-07T04:04:40;98515.94;;;20.61;43.60
73934;BME280;62286;50.528;18.284;2022-12-07T04:07:06;98521.50;;;20.61;43.61
73934;BME280;62286;50.528;18.284;2022-12-07T04:09:31;98519.50;;;20.61;43.67
73934;BME280;62286;50.528;18.284;2022-12-07T04:11:56;98515.16;;;20.60;43.62
73934;BME280;62286;50.528;18.284;2022-12-07T04:14:21;98522.28;;;20.61;43.64
73934;BME280;62286;50.528;18.284;2022-12-07T04:16:47;98517.50;;;20.62;43.73
73934;BME280;62286;50.528;18.284;2022-12-07T04:19:13;98508.38;;;20.61;43.68
73934;BME280;62286;50.528;18.284;2022-12-07T04:21:38;98513.94;;;20.61;43.60
73934;BME280;62286;50.528;18.284;2022-12-07T04:24:03;98518.28;;;20.62;43.66
73934;BME280;62286;50.528;18.284;2022-12-07T04:26:28;98513.94;;;20.61;43.67
73934;BME280;62286;50.528;18.284;2022-12-07T04:28:54;98511.94;;;20.62;43.64
73934;BME280;62286;50.528;18.284;2022-12-07T04:31:19;98512.38;;;20.60;43.65
73934;BME280;62286;50.528;18.284;2022-12-07T04:33:44;98505.22;;;20.59;43.59
73934;BME280;62286;50.528;18.284;2022-12-07T04:36:09;98507.22;;;20.59;43.69
73934;BME280;62286;50.528;18.284;2022-12-07T04:38:34;98507.22;;;20.59;43.47
73934;BME280;62286;50.528;18.284;2022-12-07T04:41:04;98511.22;;;20.58;43.62
73934;BME280;62286;50.528;18.284;2022-12-07T04:43:29;98505.63;;;20.58;43.71
73934;BME280;62286;50.528;18.284;2022-12-07T04:45:54;98504.50;;;20.55;43.74
73934;BME280;62286;50.528;18.284;2022-12-07T04:48:19;98513.28;;;20.54;43.58
73934;BME280;62286;50.528;18.284;2022-12-07T04:50:47;98502.56;;;20.52;43.58
73934;BME280;62286;50.528;18.284;2022-12-07T04:53:12;98511.34;;;20.51;43.73
73934;BME280;62286;50.528;18.284;2022-12-07T04:55:37;98512.56;;;20.50;43.72
73934;BME280;62286;50.528;18.284;2022-12-07T04:58:02;98513.00;;;20.48;43.73
73934;BME280;62286;50.528;18.284;2022-12-07T05:00:27;98506.66;;;20.48;43.61
73934;BME280;62286;50.528;18.284;2022-12-07T05:02:52;98505.09;;;20.47;43.54
73934;BME280;62286;50.528;18.284;2022-12-07T05:05:18;98509.84;;;20.46;43.69
73934;BME280;62286;50.528;18.284;2022-12-07T05:07:43;98503.91;;;20.44;43.71
73934;BME280;62286;50.528;18.284;2022-12-07T05:10:08;98508.28;;;20.45;43.60
73934;BME280;62286;50.528;18.284;2022-12-07T05:12:33;98506.69;;;20.44;43.56
73934;BME280;62286;50.528;18.284;2022-12-07T05:14:58;98505.91;;;20.44;43.62
73934;BME280;62286;50.528;18.284;2022-12-07T05:17:23;98507.91;;;20.43;43.68
73934;BME280;62286;50.528;18.284;2022-12-07T05:19:48;98513.47;;;20.43;43.57
73934;BME280;62286;50.528;18.284;2022-12-07T05:22:14;98500.75;;;20.42;43.44
73934;BME280;62286;50.528;18.284;2022-12-07T05:24:39;98508.31;;;20.41;43.64
73934;BME280;62286;50.528;18.284;2022-12-07T05:27:04;98507.09;;;20.42;43.43
73934;BME280;62286;50.528;18.284;2022-12-07T05:29:29;98506.75;;;20.40;43.63
73934;BME280;62286;50.528;18.284;2022-12-07T05:31:54;98507.53;;;20.41;43.43
73934;BME280;62286;50.528;18.284;2022-12-07T05:34:19;98509.88;;;20.42;43.50
73934;BME280;62286;50.528;18.284;2022-12-07T05:36:44;98505.09;;;20.43;43.50
73934;BME280;62286;50.528;18.284;2022-12-07T05:39:10;98503.91;;;20.44;43.37
73934;BME280;62286;50.528;18.284;2022-12-07T05:41:35;98513.47;;;20.43;43.44
73934;BME280;62286;50.528;18.284;2022-12-07T05:44:00;98515.47;;;20.42;43.48
73934;BME280;62286;50.528;18.284;2022-12-07T05:46:26;98517.88;;;20.40;43.47
73934;BME280;62286;50.528;18.284;2022-12-07T05:48:51;98517.09;;;20.40;43.56
73934;BME280;62286;50.528;18.284;2022-12-07T05:51:16;98514.72;;;20.38;43.48
73934;BME280;62286;50.528;18.284;2022-12-07T05:53:41;98512.31;;;20.40;43.53
73934;BME280;62286;50.528;18.284;2022-12-07T05:56:06;98521.06;;;20.39;43.28
73934;BME280;62286;50.528;18.284;2022-12-07T05:58:31;98517.09;;;20.40;43.45
73934;BME280;62286;50.528;18.284;2022-12-07T06:00:57;98524.25;;;20.41;43.38
73934;BME280;62286;50.528;18.284;2022-12-07T06:03:22;98524.25;;;20.41;43.44
73934;BME280;62286;50.528;18.284;2022-12-07T06:05:47;98523.47;;;20.40;43.31
73934;BME280;62286;50.528;18.284;2022-12-07T06:08:12;98524.25;;;20.41;43.20
73934;BME280;62286;50.528;18.284;2022-12-07T06:10:37;98532.16;;;20.42;43.13
73934;BME280;62286;50.528;18.284;2022-12-07T06:13:02;98524.25;;;20.41;43.20
73934;BME280;62286;50.528;18.284;2022-12-07T06:15:27;98527.81;;;20.41;43.17
73934;BME280;62286;50.528;18.284;2022-12-07T06:17:52;98525.03;;;20.41;43.14
73934;BME280;62286;50.528;18.284;2022-12-07T06:20:18;98527.38;;;20.43;43.15
73934;BME280;62286;50.528;18.284;2022-12-07T06:22:43;98524.59;;;20.43;43.31
73934;BME280;62286;50.528;18.284;2022-12-07T06:25:08;98515.47;;;20.42;43.24
73934;BME280;62286;50.528;18.284;2022-12-07T06:27:33;98519.81;;;20.44;43.22
73934;BME280;62286;50.528;18.284;2022-12-07T06:29:59;98517.81;;;20.44;43.15
73934;BME280;62286;50.528;18.284;2022-12-07T06:32:24;98527.38;;;20.43;43.23
73934;BME280;62286;50.528;18.284;2022-12-07T06:34:49;98525.38;;;20.44;43.18
73934;BME280;62286;50.528;18.284;2022-12-07T06:37:14;98525.38;;;20.44;43.09
73934;BME280;62286;50.528;18.284;2022-12-07T06:39:39;98528.94;;;20.44;43.14
73934;BME280;62286;50.528;18.284;2022-12-07T06:42:04;98523.81;;;20.42;43.04
73934;BME280;62286;50.528;18.284;2022-12-07T06:44:29;98523.03;;;20.42;43.10
73934;BME280;62286;50.528;18.284;2022-12-07T06:46:55;98527.81;;;20.41;43.25
73934;BME280;62286;50.528;18.284;2022-12-07T06:49:20;98522.69;;;20.40;43.31
73934;BME280;62286;50.528;18.284;2022-12-07T06:51:45;98527.44;;;20.39;43.24
73934;BME280;62286;50.528;18.284;2022-12-07T06:54:11;98533.00;;;20.39;43.21
73934;BME280;62286;50.528;18.284;2022-12-07T06:56:36;98529.44;;;20.39;43.24
73934;BME280;62286;50.528;18.284;2022-12-07T06:59:02;98535.00;;;20.39;43.21
73934;BME280;62286;50.528;18.284;2022-12-07T07:01:28;98540.56;;;20.39;43.20
73934;BME280;62286;50.528;18.284;2022-12-07T07:03:53;98542.16;;;20.40;43.06
73934;BME280;62286;50.528;18.284;2022-12-07T07:06:18;98540.16;;;20.40;43.11
73934;BME280;62286;50.528;18.284;2022-12-07T07:08:43;98535.38;;;20.41;43.05
73934;BME280;62286;50.528;18.284;2022-12-07T07:11:08;98531.03;;;20.40;43.09
73934;BME280;62286;50.528;18.284;2022-12-07T07:13:34;98531.81;;;20.40;43.12
73934;BME280;62286;50.528;18.284;2022-12-07T07:15:59;98521.47;;;20.41;43.08
73934;BME280;62286;50.528;18.284;2022-12-07T07:18:25;98519.03;;;20.43;42.96
73934;BME280;62286;50.528;18.284;2022-12-07T07:20:50;98524.47;;;20.50;42.92
73934;BME280;62286;50.528;18.284;2022-12-07T07:23:16;98521.25;;;20.52;42.96
73934;BME280;62286;50.528;18.284;2022-12-07T07:25:41;98521.25;;;20.52;42.98
73934;BME280;62286;50.528;18.284;2022-12-07T07:28:06;98524.06;;;20.52;43.26
73934;BME280;62286;50.528;18.284;2022-12-07T07:30:31;98524.84;;;20.52;43.14
73934;BME280;62286;50.528;18.284;2022-12-07T07:32:57;98524.06;;;20.52;42.96
73934;BME280;62286;50.528;18.284;2022-12-07T07:35:22;98530.84;;;20.51;43.12
73934;BME280;62286;50.528;18.284;2022-12-07T07:37:47;98538.75;;;20.52;43.17
73934;BME280;62286;50.528;18.284;2022-12-07T07:40:12;98537.56;;;20.53;43.16
73934;BME280;62286;50.528;18.284;2022-12-07T07:42:37;98537.56;;;20.53;43.00
73934;BME280;62286;50.528;18.284;2022-12-07T07:45:02;98538.34;;;20.54;42.99
73934;BME280;62286;50.528;18.284;2022-12-07T07:47:28;98541.91;;;20.54;43.00
73934;BME280;62286;50.528;18.284;2022-12-07T07:49:53;98543.47;;;20.55;43.11
73934;BME280;62286;50.528;18.284;2022-12-07T07:52:18;98541.47;;;20.56;43.11
73934;BME280;62286;50.528;18.284;2022-12-07T07:54:43;98551.84;;;20.55;43.05
73934;BME280;62286;50.528;18.284;2022-12-07T07:57:08;98551.41;;;20.57;43.05
73934;BME280;62286;50.528;18.284;2022-12-07T07:59:33;98554.19;;;20.57;43.15
73934;BME280;62286;50.528;18.284;2022-12-07T08:01:58;98556.97;;;20.57;43.18
73934;BME280;62286;50.528;18.284;2022-12-07T08:04:24;98562.53;;;20.57;43.16
73934;BME280;62286;50.528;18.284;2022-12-07T08:06:49;98562.53;;;20.57;42.98
73934;BME280;62286;50.528;18.284;2022-12-07T08:09:14;98561.31;;;20.58;43.03
73934;BME280;62286;50.528;18.284;2022-12-07T08:11:39;98569.66;;;20.58;43.08
73934;BME280;62286;50.528;18.284;2022-12-07T08:14:04;98572.47;;;20.58;43.02
73934;BME280;62286;50.528;18.284;2022-12-07T08:16:29;98578.03;;;20.58;42.84
73934;BME280;62286;50.528;18.284;2022-12-07T08:18:54;98571.66;;;20.57;42.95
73934;BME280;62286;50.528;18.284;2022-12-07T08:21:20;98580.81;;;20.58;43.15
73934;BME280;62286;50.528;18.284;2022-12-07T08:23:45;98572.47;;;20.58;43.09
73934;BME280;62286;50.528;18.284;2022-12-07T08:26:10;98568.47;;;20.59;42.89
73934;BME280;62286;50.528;18.284;2022-12-07T08:28:36;98574.81;;;20.59;42.89
73934;BME280;62286;50.528;18.284;2022-12-07T08:31:02;98568.06;;;20.60;42.90
73934;BME280;62286;50.528;18.284;2022-12-07T08:33:27;98573.63;;;20.60;42.95
73934;BME280;62286;50.528;18.284;2022-12-07T08:35:53;98571.63;;;20.61;42.81
73934;BME280;62286;50.528;18.284;2022-12-07T08:38:18;98566.06;;;20.61;43.04
73934;BME280;62286;50.528;18.284;2022-12-07T08:40:43;98567.28;;;20.60;42.95
73934;BME280;62286;50.528;18.284;2022-12-07T08:43:08;98567.66;;;20.58;43.05
73934;BME280;62286;50.528;18.284;2022-12-07T08:45:33;98570.88;;;20.57;43.03
73934;BME280;62286;50.528;18.284;2022-12-07T08:48:04;98572.53;;;20.54;42.97
73934;BME280;62286;50.528;18.284;2022-12-07T08:50:31;98569.75;;;20.54;42.99
73934;BME280;62286;50.528;18.284;2022-12-07T08:52:57;98566.19;;;20.54;42.94
73934;BME280;62286;50.528;18.284;2022-12-07T08:55:23;98563.75;;;20.56;42.99
73934;BME280;62286;50.528;18.284;2022-12-07T08:57:49;98559.75;;;20.57;42.88
73934;BME280;62286;50.528;18.284;2022-12-07T09:00:14;98560.53;;;20.57;42.92
73934;BME280;62286;50.528;18.284;2022-12-07T09:02:40;98558.53;;;20.58;42.89
73934;BME280;62286;50.528;18.284;2022-12-07T09:05:05;98557.31;;;20.59;42.81
73934;BME280;62286;50.528;18.284;2022-12-07T09:07:30;98551.41;;;20.57;42.80
73934;BME280;62286;50.528;18.284;2022-12-07T09:09:56;98546.63;;;20.57;42.82
73934;BME280;62286;50.528;18.284;2022-12-07T09:12:22;98538.69;;;20.56;42.73
73934;BME280;62286;50.528;18.284;2022-12-07T09:14:47;98544.25;;;20.56;42.88
73934;BME280;62286;50.528;18.284;2022-12-07T09:17:12;98541.47;;;20.56;42.92
73934;BME280;62286;50.528;18.284;2022-12-07T09:19:38;98533.91;;;20.56;42.70
73934;BME280;62286;50.528;18.284;2022-12-07T09:22:03;98533.91;;;20.56;42.64
73934;BME280;62286;50.528;18.284;2022-12-07T09:24:29;98540.69;;;20.55;42.77
73934;BME280;62286;50.528;18.284;2022-12-07T09:26:54;98520.78;;;20.57;42.82
73934;BME280;62286;50.528;18.284;2022-12-07T09:29:19;98526.34;;;20.57;42.76
73934;BME280;62286;50.528;18.284;2022-12-07T09:31:44;98524.78;;;20.56;42.80
73934;BME280;62286;50.528;18.284;2022-12-07T09:34:09;98524.00;;;20.55;42.64
73934;BME280;62286;50.528;18.284;2022-12-07T09:36:34;98521.22;;;20.55;42.72
73934;BME280;62286;50.528;18.284;2022-12-07T09:38:59;98515.22;;;20.57;42.69
73934;BME280;62286;50.528;18.284;2022-12-07T09:41:25;98514.00;;;20.58;42.79
73934;BME280;62286;50.528;18.284;2022-12-07T09:43:52;98502.41;;;20.59;42.72
73934;BME280;62286;50.528;18.284;2022-12-07T09:46:18;98503.22;;;20.60;42.61
73934;BME280;62286;50.528;18.284;2022-12-07T09:48:44;98503.22;;;20.60;42.61
73934;BME280;62286;50.528;18.284;2022-12-07T09:51:13;98495.66;;;20.60;42.70
73934;BME280;62286;50.528;18.284;2022-12-07T09:53:39;98488.50;;;20.59;42.69
73934;BME280;62286;50.528;18.284;2022-12-07T09:56:04;98492.88;;;20.60;42.68
73934;BME280;62286;50.528;18.284;2022-12-07T09:58:30;98494.44;;;20.61;42.58
73934;BME280;62286;50.528;18.284;2022-12-07T10:01:09;98495.66;;;20.60;42.64
73934;BME280;62286;50.528;18.284;2022-12-07T10:03:36;98485.72;;;20.59;42.75
73934;BME280;62286;50.528;18.284;2022-12-07T10:06:02;98478.53;;;20.62;42.70
73934;BME280;62286;50.528;18.284;2022-12-07T10:08:28;98482.53;;;20.61;42.55
73934;BME280;62286;50.528;18.284;2022-12-07T10:10:55;98484.09;;;20.62;42.61
73934;BME280;62286;50.528;18.284;2022-12-07T10:13:21;98479.75;;;20.61;42.77
73934;BME280;62286;50.528;18.284;2022-12-07T10:18:19;98478.88;;;20.64;42.54
73934;BME280;62286;50.528;18.284;2022-12-07T10:20:45;98478.53;;;20.62;42.58
73934;BME280;62286;50.528;18.284;2022-12-07T10:23:14;98469.75;;;20.63;42.68
73934;BME280;62286;50.528;18.284;2022-12-07T10:25:40;98475.31;;;20.63;42.65
73934;BME280;62286;50.528;18.284;2022-12-07T10:30:34;98461.38;;;20.63;42.73
73934;BME280;62286;50.528;18.284;2022-12-07T10:35:54;98463.38;;;20.63;42.56
73934;BME280;62286;50.528;18.284;2022-12-07T10:38:19;98463.38;;;20.63;42.59
73934;BME280;62286;50.528;18.284;2022-12-07T10:40:45;98456.25;;;20.62;42.53
73934;BME280;62286;50.528;18.284;2022-12-07T10:45:35;98466.16;;;20.63;42.57
73934;BME280;62286;50.528;18.284;2022-12-07T10:48:10;98461.38;;;20.63;42.63
73934;BME280;62286;50.528;18.284;2022-12-07T10:53:42;98466.16;;;20.63;42.50
73934;BME280;62286;50.528;18.284;2022-12-07T10:56:02;98457.81;;;20.63;42.57
73934;BME280;62286;50.528;18.284;2022-12-07T11:06:31;98449.03;;;20.64;42.61
73934;BME280;62286;50.528;18.284;2022-12-07T11:11:43;98448.59;;;20.66;42.52
73934;BME280;62286;50.528;18.284;2022-12-07T11:14:25;98452.97;;;20.67;42.52
73934;BME280;62286;50.528;18.284;2022-12-07T11:19:49;98450.19;;;20.67;42.54
73934;BME280;62286;50.528;18.284;2022-12-07T11:27:45;98441.06;;;20.66;42.57
73934;BME280;62286;50.528;18.284;2022-12-07T11:30:37;98433.47;;;20.67;42.75
73934;BME280;62286;50.528;18.284;2022-12-07T11:33:06;98437.03;;;20.67;42.61
73934;BME280;62286;50.528;18.284;2022-12-07T11:38:20;98430.69;;;20.67;42.63
73934;BME280;62286;50.528;18.284;2022-12-07T11:40:48;98431.47;;;20.67;42.48
73934;BME280;62286;50.528;18.284;2022-12-07T11:43:17;98434.25;;;20.67;42.45
73934;BME280;62286;50.528;18.284;2022-12-07T11:45:46;98429.91;;;20.66;42.65
73934;BME280;62286;50.528;18.284;2022-12-07T11:48:19;98422.75;;;20.65;42.55
73934;BME280;62286;50.528;18.284;2022-12-07T11:50:57;98433.09;;;20.65;42.79
73934;BME280;62286;50.528;18.284;2022-12-07T11:53:25;98423.97;;;20.64;42.56
73934;BME280;62286;50.528;18.284;2022-12-07T11:55:57;98419.19;;;20.65;42.55
73934;BME280;62286;50.528;18.284;2022-12-07T12:03:53;98419.63;;;20.63;42.61
73934;BME280;62286;50.528;18.284;2022-12-07T12:06:21;98412.06;;;20.64;42.53
73934;BME280;62286;50.528;18.284;2022-12-07T12:08:53;98410.47;;;20.63;42.56
73934;BME280;62286;50.528;18.284;2022-12-07T12:11:29;98402.91;;;20.63;42.74
73934;BME280;62286;50.528;18.284;2022-12-07T12:14:05;98406.47;;;20.64;42.54
73934;BME280;62286;50.528;18.284;2022-12-07T12:21:49;98400.91;;;20.64;42.60
73934;BME280;62286;50.528;18.284;2022-12-07T12:24:19;98399.69;;;20.65;42.74
73934;BME280;62286;50.528;18.284;2022-12-07T12:26:49;98389.00;;;20.63;42.61
73934;BME280;62286;50.528;18.284;2022-12-07T12:29:23;98387.00;;;20.64;42.63
73934;BME280;62286;50.528;18.284;2022-12-07T12:37:14;98390.22;;;20.62;42.67
73934;BME280;62286;50.528;18.284;2022-12-07T12:42:44;98387.78;;;20.64;42.56
73934;BME280;62286;50.528;18.284;2022-12-07T12:45:43;98386.56;;;20.65;42.67
73934;BME280;62286;50.528;18.284;2022-12-07T12:48:02;98395.69;;;20.66;42.59
73934;BME280;62286;50.528;18.284;2022-12-07T12:50:34;98391.34;;;20.65;42.45
73934;BME280;62286;50.528;18.284;2022-12-07T12:55:46;98401.25;;;20.66;42.71
73934;BME280;62286;50.528;18.284;2022-12-07T13:00:42;98395.69;;;20.66;42.68
73934;BME280;62286;50.528;18.284;2022-12-07T13:03:16;98398.91;;;20.64;42.69
73934;BME280;62286;50.528;18.284;2022-12-07T13:05:46;98394.91;;;20.65;42.75
73934;BME280;62286;50.528;18.284;2022-12-07T13:10:40;98401.25;;;20.66;42.59
73934;BME280;62286;50.528;18.284;2022-12-07T13:15:43;98391.34;;;20.65;42.62
73934;BME280;62286;50.528;18.284;2022-12-07T13:20:55;98399.69;;;20.65;42.61
73934;BME280;62286;50.528;18.284;2022-12-07T13:23:22;98396.91;;;20.65;42.65
73934;BME280;62286;50.528;18.284;2022-12-07T13:25:54;98406.03;;;20.65;42.71
73934;BME280;62286;50.528;18.284;2022-12-07T13:28:20;98407.25;;;20.64;42.61
73934;BME280;62286;50.528;18.284;2022-12-07T13:30:47;98400.91;;;20.64;42.67
73934;BME280;62286;50.528;18.284;2022-12-07T13:33:15;98406.03;;;20.65;42.68
73934;BME280;62286;50.528;18.284;2022-12-07T13:35:42;98418.41;;;20.64;42.72
73934;BME280;62286;50.528;18.284;2022-12-07T13:38:22;98413.63;;;20.65;42.55
73934;BME280;62286;50.528;18.284;2022-12-07T13:41:04;98410.84;;;20.65;42.60
73934;BME280;62286;50.528;18.284;2022-12-07T13:43:30;98411.63;;;20.65;42.80
73934;BME280;62286;50.528;18.284;2022-12-07T13:45:58;98419.19;;;20.65;42.48
73934;BME280;62286;50.528;18.284;2022-12-07T13:48:28;98423.53;;;20.66;42.55
73934;BME280;62286;50.528;18.284;2022-12-07T13:50:56;98422.75;;;20.65;42.61
73934;BME280;62286;50.528;18.284;2022-12-07T13:53:21;98421.56;;;20.66;42.51
73934;BME280;62286;50.528;18.284;2022-12-07T13:55:47;98435.47;;;20.66;42.66
73934;BME280;62286;50.528;18.284;2022-12-07T13:58:12;98431.47;;;20.67;42.72
73934;BME280;62286;50.528;18.284;2022-12-07T14:00:37;98446.63;;;20.66;42.38
73934;BME280;62286;50.528;18.284;2022-12-07T14:03:27;98448.97;;;20.68;42.59
73934;BME280;62286;50.528;18.284;2022-12-07T14:06:02;98445.03;;;20.65;42.68
73934;BME280;62286;50.528;18.284;2022-12-07T14:08:29;98447.03;;;20.65;42.56
73934;BME280;62286;50.528;18.284;2022-12-07T14:10:55;98448.25;;;20.64;42.87
73934;BME280;62286;50.528;18.284;2022-12-07T14:15:52;98444.25;;;20.65;42.55
73934;BME280;62286;50.528;18.284;2022-12-07T14:18:24;98435.88;;;20.65;42.71
73934;BME280;62286;50.528;18.284;2022-12-07T14:20:50;98433.88;;;20.65;42.51
73934;BME280;62286;50.528;18.284;2022-12-07T14:23:25;98439.06;;;20.67;42.57
73934;BME280;62286;50.528;18.284;2022-12-07T14:25:51;98437.03;;;20.67;42.71
73934;BME280;62286;50.528;18.284;2022-12-07T14:30:54;98436.25;;;20.67;42.74
73934;BME280;62286;50.528;18.284;2022-12-07T14:33:19;98431.88;;;20.66;42.67
73934;BME280;62286;50.528;18.284;2022-12-07T14:35:46;98431.88;;;20.66;42.75
73934;BME280;62286;50.528;18.284;2022-12-07T14:38:11;98439.06;;;20.67;42.71
73934;BME280;62286;50.528;18.284;2022-12-07T14:40:36;98429.53;;;20.64;42.76
73934;BME280;62286;50.528;18.284;2022-12-07T14:43:04;98434.31;;;20.64;42.73
73934;BME280;62286;50.528;18.284;2022-12-07T14:45:30;98431.53;;;20.64;42.61
73934;BME280;62286;50.528;18.284;2022-12-07T14:47:56;98444.25;;;20.65;42.68